sensor_id;sensor_type;location;lat;lon;timestamp;pressure;altitude;pressure_sealevel;temperature;humidity
46714;BME280;32445;51.376;10.874;2022-09-09T00:02:37;98885.88;;;18.65;51.26
46714;BME280;32445;51.376;10.874;2022-09-09T00:05:49;98893.75;;;18.65;51.00
46714;BME280;32445;51.376;10.874;2022-09-09T00:09:16;98895.44;;;18.66;51.14
46714;BME280;32445;51.376;10.874;2022-09-09T00:15:31;98888.81;;;18.60;51.28
46714;BME280;32445;51.376;10.874;2022-09-09T00:22:23;98886.63;;;18.54;51.27
46714;BME280;32445;51.376;10.874;2022-09-09T00:25:37;98891.03;;;18.54;51.52
46714;BME280;32445;51.376;10.874;2022-09-09T00:29:10;98885.38;;;18.47;51.97
46714;BME280;32445;51.376;10.874;2022-09-09T00:32:18;98877.38;;;18.48;51.35
46714;BME280;32445;51.376;10.874;2022-09-09T00:35:22;98876.13;;;18.54;51.35
46714;BME280;32445;51.376;10.874;2022-09-09T00:38:27;98880.28;;;18.57;51.20
46714;BME280;32445;51.376;10.874;2022-09-09T00:44:37;98882.81;;;18.58;50.83
46714;BME280;32445;51.376;10.874;2022-09-09T00:47:50;98877.47;;;18.60;50.84
46714;BME280;32445;51.376;10.874;2022-09-09T00:51:00;98888.72;;;18.62;50.44
46714;BME280;32445;51.376;10.874;2022-09-09T00:57:30;98889.25;;;18.67;50.67
46714;BME280;32445;51.376;10.874;2022-09-09T01:00:36;98887.44;;;18.67;50.85
46714;BME280;32445;51.376;10.874;2022-09-09T01:03:54;98883.13;;;18.66;50.86
46714;BME280;32445;51.376;10.874;2022-09-09T01:07:16;98876.09;;;18.67;50.69
46714;BME280;32445;51.376;10.874;2022-09-09T01:10:39;98888.50;;;18.65;50.70
46714;BME280;32445;51.376;10.874;2022-09-09T01:13:42;98891.13;;;18.65;50.30
46714;BME280;32445;51.376;10.874;2022-09-09T01:16:47;98894.69;;;18.64;50.14
46714;BME280;32445;51.376;10.874;2022-09-09T01:24:13;98890.81;;;18.57;50.43
46714;BME280;32445;51.376;10.874;2022-09-09T01:27:18;98891.88;;;18.54;49.92
46714;BME280;32445;51.376;10.874;2022-09-09T01:30:20;98885.97;;;18.50;50.25
46714;BME280;32445;51.376;10.874;2022-09-09T01:33:21;98886.81;;;18.51;49.58
46714;BME280;32445;51.376;10.874;2022-09-09T01:39:43;98894.28;;;18.44;50.20
46714;BME280;32445;51.376;10.874;2022-09-09T01:42:44;98893.53;;;18.42;50.43
46714;BME280;32445;51.376;10.874;2022-09-09T01:45:46;98882.41;;;18.39;50.51
46714;BME280;32445;51.376;10.874;2022-09-09T01:48:50;98881.78;;;18.35;51.05
46714;BME280;32445;51.376;10.874;2022-09-09T01:51:54;98890.50;;;18.36;50.62
46714;BME280;32445;51.376;10.874;2022-09-09T01:54:55;98891.44;;;18.35;50.74
46714;BME280;32445;51.376;10.874;2022-09-09T02:01:28;98888.81;;;18.35;50.74
46714;BME280;32445;51.376;10.874;2022-09-09T02:04:42;98884.50;;;18.33;50.86
46714;BME280;32445;51.376;10.874;2022-09-09T02:07:48;98903.00;;;18.32;50.48
46714;BME280;32445;51.376;10.874;2022-09-09T02:11:01;98884.00;;;18.28;50.72
46714;BME280;32445;51.376;10.874;2022-09-09T02:14:08;98884.72;;;18.30;50.79
46714;BME280;32445;51.376;10.874;2022-09-09T02:17:14;98880.50;;;18.28;50.94
46714;BME280;32445;51.376;10.874;2022-09-09T02:20:18;98876.28;;;18.25;51.02
46714;BME280;32445;51.376;10.874;2022-09-09T02:23:19;98881.66;;;18.24;50.84
46714;BME280;32445;51.376;10.874;2022-09-09T02:26:21;98880.09;;;18.21;51.05
46714;BME280;32445;51.376;10.874;2022-09-09T02:29:27;98886.41;;;18.19;51.12
46714;BME280;32445;51.376;10.874;2022-09-09T02:32:33;98883.00;;;18.16;51.19
46714;BME280;32445;51.376;10.874;2022-09-09T02:35:34;98882.28;;;18.14;50.59
46714;BME280;32445;51.376;10.874;2022-09-09T02:38:45;98877.25;;;18.11;51.30
46714;BME280;32445;51.376;10.874;2022-09-09T02:41:46;98880.81;;;18.10;51.36
46714;BME280;32445;51.376;10.874;2022-09-09T02:44:47;98883.44;;;18.10;51.22
46714;BME280;32445;51.376;10.874;2022-09-09T02:47:50;98878.19;;;18.10;51.32
46714;BME280;32445;51.376;10.874;2022-09-09T02:51:12;98877.56;;;18.07;51.71
46714;BME280;32445;51.376;10.874;2022-09-09T02:54:31;98878.19;;;18.10;51.49
46714;BME280;32445;51.376;10.874;2022-09-09T02:57:32;98879.88;;;18.11;51.41
46714;BME280;32445;51.376;10.874;2022-09-09T03:00:33;98882.50;;;18.11;51.84
46714;BME280;32445;51.376;10.874;2022-09-09T03:03:36;98881.66;;;18.11;51.57
46714;BME280;32445;51.376;10.874;2022-09-09T03:06:36;98887.75;;;18.11;51.11
46714;BME280;32445;51.376;10.874;2022-09-09T03:09:36;98876.41;;;18.11;51.04
46714;BME280;32445;51.376;10.874;2022-09-09T03:12:37;98884.19;;;18.12;51.87
46714;BME280;32445;51.376;10.874;2022-09-09T03:15:38;98876.50;;;18.09;52.03
46714;BME280;32445;51.376;10.874;2022-09-09T03:18:39;98880.09;;;18.08;51.89
46714;BME280;32445;51.376;10.874;2022-09-09T03:21:39;98887.88;;;18.10;51.68
46714;BME280;32445;51.376;10.874;2022-09-09T03:24:39;98893.94;;;18.10;51.67
46714;BME280;32445;51.376;10.874;2022-09-09T03:27:40;98884.38;;;18.09;51.70
46714;BME280;32445;51.376;10.874;2022-09-09T03:30:40;98887.00;;;18.09;51.70
46714;BME280;32445;51.376;10.874;2022-09-09T03:33:41;98887.00;;;18.09;51.38
46714;BME280;32445;51.376;10.874;2022-09-09T03:36:41;98885.44;;;18.07;51.77
46714;BME280;32445;51.376;10.874;2022-09-09T03:39:41;98884.69;;;18.05;52.04
46714;BME280;32445;51.376;10.874;2022-09-09T03:42:42;98882.16;;;18.03;51.60
46714;BME280;32445;51.376;10.874;2022-09-09T03:45:46;98881.44;;;18.01;51.49
46714;BME280;32445;51.376;10.874;2022-09-09T03:48:47;98885.94;;;17.99;51.90
46714;BME280;32445;51.376;10.874;2022-09-09T03:51:48;98884.25;;;17.98;52.00
46714;BME280;32445;51.376;10.874;2022-09-09T03:54:48;98881.84;;;17.95;51.50
46714;BME280;32445;51.376;10.874;2022-09-09T03:57:48;98880.19;;;17.94;51.67
46714;BME280;32445;51.376;10.874;2022-09-09T04:00:58;98887.41;;;17.90;51.88
46714;BME280;32445;51.376;10.874;2022-09-09T04:03:58;98883.91;;;17.90;51.88
46714;BME280;32445;51.376;10.874;2022-09-09T04:06:59;98882.31;;;17.87;51.71
46714;BME280;32445;51.376;10.874;2022-09-09T04:09:59;98881.50;;;17.87;51.78
46714;BME280;32445;51.376;10.874;2022-09-09T04:12:59;98882.44;;;17.86;51.63
46714;BME280;32445;51.376;10.874;2022-09-09T04:16:01;98872.03;;;17.84;51.95
46714;BME280;32445;51.376;10.874;2022-09-09T04:19:03;98869.50;;;17.83;52.19
46714;BME280;32445;51.376;10.874;2022-09-09T04:22:04;98876.63;;;17.80;52.47
46714;BME280;32445;51.376;10.874;2022-09-09T04:25:08;98875.78;;;17.80;52.65
46714;BME280;32445;51.376;10.874;2022-09-09T04:28:08;98879.16;;;17.82;52.70
46714;BME280;32445;51.376;10.874;2022-09-09T04:31:11;98867.00;;;17.81;52.55
46714;BME280;32445;51.376;10.874;2022-09-09T04:34:14;98871.28;;;17.82;52.58
46714;BME280;32445;51.376;10.874;2022-09-09T04:37:15;98876.41;;;17.84;52.48
46714;BME280;32445;51.376;10.874;2022-09-09T04:40:15;98866.78;;;17.84;52.24
46714;BME280;32445;51.376;10.874;2022-09-09T04:43:15;98872.84;;;17.85;52.70
46714;BME280;32445;51.376;10.874;2022-09-09T04:46:16;98883.38;;;17.85;52.81
46714;BME280;32445;51.376;10.874;2022-09-09T04:49:19;98878.09;;;17.85;52.85
46714;BME280;32445;51.376;10.874;2022-09-09T04:52:20;98888.63;;;17.85;52.80
46714;BME280;32445;51.376;10.874;2022-09-09T04:55:20;98890.31;;;17.86;53.07
46714;BME280;32445;51.376;10.874;2022-09-09T04:58:21;98882.44;;;17.86;53.00
46714;BME280;32445;51.376;10.874;2022-09-09T05:01:22;98891.13;;;17.86;52.60
46714;BME280;32445;51.376;10.874;2022-09-09T05:04:24;98889.25;;;17.88;52.17
46714;BME280;32445;51.376;10.874;2022-09-09T05:07:24;98890.09;;;17.89;52.07
46714;BME280;32445;51.376;10.874;2022-09-09T05:10:27;98895.44;;;17.87;52.62
46714;BME280;32445;51.376;10.874;2022-09-09T05:13:27;98895.56;;;17.86;52.54
46714;BME280;32445;51.376;10.874;2022-09-09T05:16:28;98892.06;;;17.85;52.66
46714;BME280;32445;51.376;10.874;2022-09-09T05:19:28;98893.88;;;17.85;52.90
46714;BME280;32445;51.376;10.874;2022-09-09T05:22:31;98902.66;;;17.84;52.64
46714;BME280;32445;51.376;10.874;2022-09-09T05:25:31;98910.66;;;17.82;52.67
46714;BME280;32445;51.376;10.874;2022-09-09T05:28:34;98905.41;;;17.82;53.20
46714;BME280;32445;51.376;10.874;2022-09-09T05:31:35;98909.91;;;17.80;52.63
46714;BME280;32445;51.376;10.874;2022-09-09T05:34:35;98909.09;;;17.79;52.77
46714;BME280;32445;51.376;10.874;2022-09-09T05:37:37;98903.84;;;17.79;52.83
46714;BME280;32445;51.376;10.874;2022-09-09T05:40:37;98902.97;;;17.79;52.44
46714;BME280;32445;51.376;10.874;2022-09-09T05:43:38;98903.84;;;17.79;52.79
46714;BME280;32445;51.376;10.874;2022-09-09T05:46:39;98902.88;;;17.80;52.73
46714;BME280;32445;51.376;10.874;2022-09-09T05:49:39;98907.28;;;17.80;53.10
46714;BME280;32445;51.376;10.874;2022-09-09T05:52:40;98904.56;;;17.81;52.79
46714;BME280;32445;51.376;10.874;2022-09-09T05:55:40;98905.28;;;17.84;53.15
46714;BME280;32445;51.376;10.874;2022-09-09T05:58:42;98905.19;;;17.85;53.13
46714;BME280;32445;51.376;10.874;2022-09-09T06:01:43;98906.88;;;17.86;53.23
46714;BME280;32445;51.376;10.874;2022-09-09T06:04:45;98904.16;;;17.88;53.21
46714;BME280;32445;51.376;10.874;2022-09-09T06:07:45;98902.28;;;17.90;53.35
46714;BME280;32445;51.376;10.874;2022-09-09T06:10:45;98907.38;;;17.93;53.62
46714;BME280;32445;51.376;10.874;2022-09-09T06:13:46;98910.72;;;17.95;53.39
46714;BME280;32445;51.376;10.874;2022-09-09T06:16:47;98915.03;;;17.96;53.73
46714;BME280;32445;51.376;10.874;2022-09-09T06:19:48;98913.13;;;17.98;53.55
46714;BME280;32445;51.376;10.874;2022-09-09T06:22:48;98911.16;;;18.02;53.76
46714;BME280;32445;51.376;10.874;2022-09-09T06:25:48;98918.09;;;18.03;53.82
46714;BME280;32445;51.376;10.874;2022-09-09T06:28:50;98910.84;;;18.06;54.65
46714;BME280;32445;51.376;10.874;2022-09-09T06:31:52;98917.69;;;18.09;54.64
46714;BME280;32445;51.376;10.874;2022-09-09T06:34:53;98909.72;;;18.10;54.23
46714;BME280;32445;51.376;10.874;2022-09-09T06:37:53;98915.59;;;18.14;54.32
46714;BME280;32445;51.376;10.874;2022-09-09T06:40:54;98918.03;;;18.17;54.18
46714;BME280;32445;51.376;10.874;2022-09-09T06:43:55;98923.19;;;18.19;54.58
46714;BME280;32445;51.376;10.874;2022-09-09T06:46:56;98921.38;;;18.19;54.74
46714;BME280;32445;51.376;10.874;2022-09-09T06:49:56;98914.25;;;18.21;54.42
46714;BME280;32445;51.376;10.874;2022-09-09T06:52:57;98915.81;;;18.24;54.45
46714;BME280;32445;51.376;10.874;2022-09-09T06:55:57;98918.25;;;18.27;54.68
46714;BME280;32445;51.376;10.874;2022-09-09T06:58:59;98916.25;;;18.30;54.91
46714;BME280;32445;51.376;10.874;2022-09-09T07:02:01;98920.47;;;18.33;54.87
46714;BME280;32445;51.376;10.874;2022-09-09T07:05:01;98917.63;;;18.36;54.38
46714;BME280;32445;51.376;10.874;2022-09-09T07:08:02;98923.41;;;18.41;54.06
46714;BME280;32445;51.376;10.874;2022-09-09T07:11:03;98923.00;;;18.47;53.89
46714;BME280;32445;51.376;10.874;2022-09-09T07:14:07;98926.16;;;18.53;54.14
46714;BME280;32445;51.376;10.874;2022-09-09T07:17:08;98922.34;;;18.57;54.01
46714;BME280;32445;51.376;10.874;2022-09-09T07:20:08;98925.84;;;18.57;53.89
46714;BME280;32445;51.376;10.874;2022-09-09T07:23:09;98924.97;;;18.57;54.00
46714;BME280;32445;51.376;10.874;2022-09-09T07:26:16;98937.28;;;18.56;53.96
46714;BME280;32445;51.376;10.874;2022-09-09T07:29:16;98924.16;;;18.56;54.11
46714;BME280;32445;51.376;10.874;2022-09-09T07:32:17;98919.59;;;18.58;54.08
46714;BME280;32445;51.376;10.874;2022-09-09T07:35:17;98918.56;;;18.61;54.47
46714;BME280;32445;51.376;10.874;2022-09-09T07:38:19;98922.78;;;18.63;54.40
46714;BME280;32445;51.376;10.874;2022-09-09T07:41:25;98921.84;;;18.64;54.63
46714;BME280;32445;51.376;10.874;2022-09-09T07:44:26;98921.63;;;18.67;54.56
46714;BME280;32445;51.376;10.874;2022-09-09T07:47:27;98919.81;;;18.68;54.26
46714;BME280;32445;51.376;10.874;2022-09-09T07:50:27;98918.06;;;18.68;54.59
46714;BME280;32445;51.376;10.874;2022-09-09T07:53:28;98917.09;;;18.70;54.18
46714;BME280;32445;51.376;10.874;2022-09-09T07:56:29;98916.16;;;18.71;54.75
46714;BME280;32445;51.376;10.874;2022-09-09T07:59:30;98914.78;;;18.78;54.27
46714;BME280;32445;51.376;10.874;2022-09-09T08:02:30;98913.63;;;18.82;54.59
46714;BME280;32445;51.376;10.874;2022-09-09T08:05:30;98924.69;;;18.87;54.53
46714;BME280;32445;51.376;10.874;2022-09-09T08:08:31;98927.50;;;18.97;54.46
46714;BME280;32445;51.376;10.874;2022-09-09T08:11:31;98940.25;;;19.03;54.37
46714;BME280;32445;51.376;10.874;2022-09-09T08:14:33;98941.28;;;19.13;54.49
46714;BME280;32445;51.376;10.874;2022-09-09T08:17:33;98945.97;;;19.21;53.96
46714;BME280;32445;51.376;10.874;2022-09-09T08:20:35;98943.34;;;19.21;54.31
46714;BME280;32445;51.376;10.874;2022-09-09T08:23:36;98942.94;;;19.27;54.48
46714;BME280;32445;51.376;10.874;2022-09-09T08:26:38;98943.53;;;19.31;54.39
46714;BME280;32445;51.376;10.874;2022-09-09T08:29:39;98952.66;;;19.38;54.37
46714;BME280;32445;51.376;10.874;2022-09-09T08:32:39;98956.53;;;19.45;54.33
46714;BME280;32445;51.376;10.874;2022-09-09T08:35:49;98950.88;;;19.51;54.82
46714;BME280;32445;51.376;10.874;2022-09-09T08:38:52;98946.59;;;19.62;54.71
46714;BME280;32445;51.376;10.874;2022-09-09T08:45:18;98949.47;;;19.83;54.42
46714;BME280;32445;51.376;10.874;2022-09-09T08:48:39;98949.53;;;19.94;53.94
46714;BME280;32445;51.376;10.874;2022-09-09T08:51:43;98950.19;;;20.09;53.55
46714;BME280;32445;51.376;10.874;2022-09-09T08:54:44;98951.31;;;20.18;53.38
46714;BME280;32445;51.376;10.874;2022-09-09T08:57:44;98949.66;;;20.28;53.22
46714;BME280;32445;51.376;10.874;2022-09-09T09:04:32;98936.41;;;20.52;53.33
46714;BME280;32445;51.376;10.874;2022-09-09T09:10:51;98954.06;;;20.74;52.60
46714;BME280;32445;51.376;10.874;2022-09-09T09:14:05;98967.63;;;20.81;51.70
46714;BME280;32445;51.376;10.874;2022-09-09T09:17:13;98953.25;;;20.85;51.42
46714;BME280;32445;51.376;10.874;2022-09-09T09:20:16;98954.72;;;20.89;51.84
46714;BME280;32445;51.376;10.874;2022-09-09T09:23:23;98965.03;;;21.04;51.23
46714;BME280;32445;51.376;10.874;2022-09-09T09:26:29;98957.47;;;21.11;50.60
46714;BME280;32445;51.376;10.874;2022-09-09T09:29:30;98966.34;;;21.21;50.59
46714;BME280;32445;51.376;10.874;2022-09-09T09:32:33;98967.41;;;21.30;50.26
46714;BME280;32445;51.376;10.874;2022-09-09T09:35:35;98965.69;;;21.40;50.16
46714;BME280;32445;51.376;10.874;2022-09-09T09:38:36;98962.34;;;21.49;49.58
46714;BME280;32445;51.376;10.874;2022-09-09T09:41:38;98962.44;;;21.59;49.63
46714;BME280;32445;51.376;10.874;2022-09-09T09:44:39;98965.56;;;21.64;49.24
46714;BME280;32445;51.376;10.874;2022-09-09T09:47:39;98962.41;;;21.70;48.86
46714;BME280;32445;51.376;10.874;2022-09-09T09:53:49;98963.19;;;21.93;48.14
46714;BME280;32445;51.376;10.874;2022-09-09T09:56:52;98957.28;;;22.01;47.70
46714;BME280;32445;51.376;10.874;2022-09-09T10:00:16;98955.81;;;22.08;47.21
46714;BME280;32445;51.376;10.874;2022-09-09T10:03:29;98967.16;;;22.20;47.03
46714;BME280;32445;51.376;10.874;2022-09-09T10:06:35;98966.06;;;22.23;46.60
46714;BME280;32445;51.376;10.874;2022-09-09T10:09:36;98968.59;;;22.24;46.32
46714;BME280;32445;51.376;10.874;2022-09-09T10:12:55;98955.63;;;22.21;46.58
46714;BME280;32445;51.376;10.874;2022-09-09T10:16:08;98956.06;;;22.26;46.44
46714;BME280;32445;51.376;10.874;2022-09-09T10:19:15;98962.22;;;22.27;46.55
46714;BME280;32445;51.376;10.874;2022-09-09T10:22:25;98958.47;;;22.29;46.68
46714;BME280;32445;51.376;10.874;2022-09-09T10:25:40;98963.00;;;22.39;46.25
46714;BME280;32445;51.376;10.874;2022-09-09T10:29:15;98946.69;;;22.55;46.26
46714;BME280;32445;51.376;10.874;2022-09-09T10:35:35;98941.91;;;23.01;44.20
46714;BME280;32445;51.376;10.874;2022-09-09T10:38:41;98943.94;;;23.18;44.20
46714;BME280;32445;51.376;10.874;2022-09-09T10:42:16;98937.81;;;23.18;43.77
46714;BME280;32445;51.376;10.874;2022-09-09T10:48:46;98944.44;;;23.43;42.75
46714;BME280;32445;51.376;10.874;2022-09-09T10:58:30;98946.16;;;23.73;41.68
46714;BME280;32445;51.376;10.874;2022-09-09T11:01:43;98940.72;;;23.84;41.79
46714;BME280;32445;51.376;10.874;2022-09-09T11:04:51;98943.00;;;23.99;41.99
46714;BME280;32445;51.376;10.874;2022-09-09T11:08:04;98936.16;;;24.16;41.42
46714;BME280;32445;51.376;10.874;2022-09-09T11:11:20;98951.06;;;24.27;41.05
46714;BME280;32445;51.376;10.874;2022-09-09T11:14:32;98939.84;;;24.43;41.56
46714;BME280;32445;51.376;10.874;2022-09-09T11:17:43;98933.41;;;24.55;41.25
46714;BME280;32445;51.376;10.874;2022-09-09T11:20:59;98933.41;;;24.75;39.83
46714;BME280;32445;51.376;10.874;2022-09-09T11:24:05;98922.78;;;24.75;39.67
46714;BME280;32445;51.376;10.874;2022-09-09T11:27:16;98922.59;;;24.86;40.96
46714;BME280;32445;51.376;10.874;2022-09-09T11:33:41;98916.22;;;25.34;38.50
46714;BME280;32445;51.376;10.874;2022-09-09T11:37:17;98907.06;;;25.47;38.09
46714;BME280;32445;51.376;10.874;2022-09-09T11:40:23;98907.75;;;25.67;38.77
46714;BME280;32445;51.376;10.874;2022-09-09T11:43:27;98917.06;;;25.89;38.24
46714;BME280;32445;51.376;10.874;2022-09-09T11:46:36;98912.41;;;26.01;36.97
46714;BME280;32445;51.376;10.874;2022-09-09T11:52:43;98911.31;;;25.94;37.24
46714;BME280;32445;51.376;10.874;2022-09-09T11:55:46;98917.25;;;26.05;36.81
46714;BME280;32445;51.376;10.874;2022-09-09T11:58:58;98923.63;;;26.13;36.92
46714;BME280;32445;51.376;10.874;2022-09-09T12:02:12;98911.00;;;26.15;35.54
46714;BME280;32445;51.376;10.874;2022-09-09T12:05:14;98905.59;;;26.24;34.98
46714;BME280;32445;51.376;10.874;2022-09-09T12:08:26;98892.41;;;26.41;34.10
46714;BME280;32445;51.376;10.874;2022-09-09T12:11:29;98889.84;;;26.57;34.17
46714;BME280;32445;51.376;10.874;2022-09-09T12:15:00;98894.91;;;26.69;33.58
46714;BME280;32445;51.376;10.874;2022-09-09T12:17:59;98885.66;;;26.55;33.63
46714;BME280;32445;51.376;10.874;2022-09-09T12:24:19;98892.00;;;26.54;33.44
46714;BME280;32445;51.376;10.874;2022-09-09T12:27:35;98882.28;;;26.45;32.19
46714;BME280;32445;51.376;10.874;2022-09-09T12:33:40;98887.44;;;26.46;32.35
46714;BME280;32445;51.376;10.874;2022-09-09T12:36:50;98892.72;;;26.38;32.29
46714;BME280;32445;51.376;10.874;2022-09-09T12:39:58;98898.34;;;26.35;33.07
46714;BME280;32445;51.376;10.874;2022-09-09T12:42:59;98904.50;;;26.35;32.79
46714;BME280;32445;51.376;10.874;2022-09-09T12:46:06;98903.97;;;26.32;32.32
46714;BME280;32445;51.376;10.874;2022-09-09T12:52:37;98891.38;;;26.34;31.66
46714;BME280;32445;51.376;10.874;2022-09-09T12:55:39;98895.06;;;26.41;31.99
46714;BME280;32445;51.376;10.874;2022-09-09T12:58:45;98884.28;;;26.42;31.30
46714;BME280;32445;51.376;10.874;2022-09-09T13:01:55;98886.06;;;26.34;31.23
46714;BME280;32445;51.376;10.874;2022-09-09T13:05:08;98892.44;;;26.23;32.17
46714;BME280;32445;51.376;10.874;2022-09-09T13:08:14;98890.16;;;26.28;31.69
46714;BME280;32445;51.376;10.874;2022-09-09T13:11:19;98880.44;;;26.19;32.53
46714;BME280;32445;51.376;10.874;2022-09-09T13:14:32;98879.84;;;26.25;32.54
46714;BME280;32445;51.376;10.874;2022-09-09T13:17:34;98865.91;;;26.31;32.97
46714;BME280;32445;51.376;10.874;2022-09-09T13:20:36;98866.78;;;26.40;32.89
46714;BME280;32445;51.376;10.874;2022-09-09T13:23:37;98870.69;;;26.54;32.67
46714;BME280;32445;51.376;10.874;2022-09-09T13:26:38;98856.59;;;26.62;32.48
46714;BME280;32445;51.376;10.874;2022-09-09T13:29:39;98857.00;;;26.75;31.87
46714;BME280;32445;51.376;10.874;2022-09-09T13:32:40;98856.88;;;26.76;30.91
46714;BME280;32445;51.376;10.874;2022-09-09T13:35:49;98844.88;;;26.81;30.84
46714;BME280;32445;51.376;10.874;2022-09-09T13:41:50;98857.13;;;27.08;30.78
46714;BME280;32445;51.376;10.874;2022-09-09T13:44:53;98851.28;;;27.04;30.38
46714;BME280;32445;51.376;10.874;2022-09-09T13:47:55;98857.94;;;27.00;30.42
46714;BME280;32445;51.376;10.874;2022-09-09T13:50:59;98847.41;;;26.90;30.32
46714;BME280;32445;51.376;10.874;2022-09-09T13:53:59;98836.75;;;26.90;30.86
46714;BME280;32445;51.376;10.874;2022-09-09T13:57:00;98851.38;;;26.78;31.38
46714;BME280;32445;51.376;10.874;2022-09-09T14:00:01;98854.88;;;26.79;32.15
46714;BME280;32445;51.376;10.874;2022-09-09T14:03:02;98854.59;;;26.90;32.31
46714;BME280;32445;51.376;10.874;2022-09-09T14:06:02;98854.44;;;27.00;31.97
46714;BME280;32445;51.376;10.874;2022-09-09T14:09:03;98860.31;;;27.11;31.67
46714;BME280;32445;51.376;10.874;2022-09-09T14:12:04;98865.66;;;27.28;31.31
46714;BME280;32445;51.376;10.874;2022-09-09T14:15:06;98855.44;;;27.50;31.35
46714;BME280;32445;51.376;10.874;2022-09-09T14:18:11;98853.59;;;27.75;31.06
46714;BME280;32445;51.376;10.874;2022-09-09T14:21:12;98847.91;;;27.86;29.46
46714;BME280;32445;51.376;10.874;2022-09-09T14:24:12;98856.09;;;27.76;29.13
46714;BME280;32445;51.376;10.874;2022-09-09T14:27:13;98857.09;;;27.59;28.44
46714;BME280;32445;51.376;10.874;2022-09-09T14:30:13;98848.75;;;27.62;28.67
46714;BME280;32445;51.376;10.874;2022-09-09T14:33:15;98851.28;;;27.55;28.02
46714;BME280;32445;51.376;10.874;2022-09-09T14:36:16;98853.06;;;27.47;28.14
46714;BME280;32445;51.376;10.874;2022-09-09T14:39:16;98848.19;;;27.34;28.34
46714;BME280;32445;51.376;10.874;2022-09-09T14:42:17;98845.75;;;27.40;28.86
46714;BME280;32445;51.376;10.874;2022-09-09T14:45:18;98832.75;;;27.45;28.59
46714;BME280;32445;51.376;10.874;2022-09-09T14:48:19;98841.75;;;27.61;28.94
46714;BME280;32445;51.376;10.874;2022-09-09T14:51:22;98838.28;;;27.77;29.27
46714;BME280;32445;51.376;10.874;2022-09-09T14:54:22;98846.75;;;27.89;28.82
46714;BME280;32445;51.376;10.874;2022-09-09T14:57:23;98843.63;;;28.02;29.34
46714;BME280;32445;51.376;10.874;2022-09-09T15:00:23;98832.44;;;28.06;29.38
46714;BME280;32445;51.376;10.874;2022-09-09T15:03:25;98829.06;;;28.12;28.31
46714;BME280;32445;51.376;10.874;2022-09-09T15:06:27;98828.09;;;28.13;28.36
46714;BME280;32445;51.376;10.874;2022-09-09T15:09:29;98840.91;;;28.18;28.24
46714;BME280;32445;51.376;10.874;2022-09-09T15:12:29;98825.41;;;28.13;27.50
46714;BME280;32445;51.376;10.874;2022-09-09T15:15:29;98825.06;;;28.17;28.90
46714;BME280;32445;51.376;10.874;2022-09-09T15:18:30;98833.41;;;28.13;27.89
46714;BME280;32445;51.376;10.874;2022-09-09T15:21:32;98832.88;;;28.26;29.28
46714;BME280;32445;51.376;10.874;2022-09-09T15:24:33;98829.69;;;28.31;27.61
46714;BME280;32445;51.376;10.874;2022-09-09T15:27:33;98829.88;;;28.29;27.12
46714;BME280;32445;51.376;10.874;2022-09-09T15:30:34;98827.06;;;28.23;26.79
46714;BME280;32445;51.376;10.874;2022-09-09T15:33:35;98830.41;;;28.17;27.20
46714;BME280;32445;51.376;10.874;2022-09-09T15:36:39;98823.44;;;28.16;27.22
46714;BME280;32445;51.376;10.874;2022-09-09T15:39:39;98816.41;;;28.23;27.57
46714;BME280;32445;51.376;10.874;2022-09-09T15:42:40;98818.91;;;28.16;26.53
46714;BME280;32445;51.376;10.874;2022-09-09T15:45:41;98825.91;;;28.17;27.52
46714;BME280;32445;51.376;10.874;2022-09-09T15:48:41;98831.09;;;28.19;28.26
46714;BME280;32445;51.376;10.874;2022-09-09T15:51:44;98840.09;;;28.18;27.39
46714;BME280;32445;51.376;10.874;2022-09-09T15:54:45;98847.75;;;27.79;27.52
46714;BME280;32445;51.376;10.874;2022-09-09T15:57:46;98839.09;;;27.77;27.58
46714;BME280;32445;51.376;10.874;2022-09-09T16:00:46;98839.75;;;27.79;27.21
46714;BME280;32445;51.376;10.874;2022-09-09T16:03:46;98833.94;;;27.76;28.08
46714;BME280;32445;51.376;10.874;2022-09-09T16:06:47;98837.94;;;27.80;27.67
46714;BME280;32445;51.376;10.874;2022-09-09T16:09:47;98841.59;;;27.79;27.60
46714;BME280;32445;51.376;10.874;2022-09-09T16:12:47;98845.59;;;27.83;29.00
46714;BME280;32445;51.376;10.874;2022-09-09T16:15:54;98862.94;;;27.87;28.24
46714;BME280;32445;51.376;10.874;2022-09-09T16:18:56;98854.94;;;27.79;27.82
46714;BME280;32445;51.376;10.874;2022-09-09T16:21:57;98862.28;;;27.77;28.45
46714;BME280;32445;51.376;10.874;2022-09-09T16:24:58;98853.75;;;27.82;28.60
46714;BME280;32445;51.376;10.874;2022-09-09T16:27:58;98856.44;;;27.90;28.29
46714;BME280;32445;51.376;10.874;2022-09-09T16:31:04;98862.06;;;27.87;28.04
46714;BME280;32445;51.376;10.874;2022-09-09T16:34:04;98863.75;;;27.88;28.69
46714;BME280;32445;51.376;10.874;2022-09-09T16:37:05;98870.06;;;27.87;28.78
46714;BME280;32445;51.376;10.874;2022-09-09T16:40:06;98862.41;;;27.84;28.87
46714;BME280;32445;51.376;10.874;2022-09-09T16:43:07;98868.25;;;27.87;30.05
46714;BME280;32445;51.376;10.874;2022-09-09T16:46:17;98866.59;;;27.78;29.83
46714;BME280;32445;51.376;10.874;2022-09-09T16:49:18;98867.59;;;27.77;30.63
46714;BME280;32445;51.376;10.874;2022-09-09T16:52:18;98860.59;;;27.68;30.62
46714;BME280;32445;51.376;10.874;2022-09-09T16:55:19;98864.44;;;27.57;30.41
46714;BME280;32445;51.376;10.874;2022-09-09T16:58:23;98874.56;;;27.45;30.52
46714;BME280;32445;51.376;10.874;2022-09-09T17:01:25;98879.72;;;27.38;30.62
46714;BME280;32445;51.376;10.874;2022-09-09T17:04:26;98867.72;;;27.34;30.94
46714;BME280;32445;51.376;10.874;2022-09-09T17:07:27;98869.50;;;27.34;31.44
46714;BME280;32445;51.376;10.874;2022-09-09T17:10:28;98873.88;;;27.35;31.76
46714;BME280;32445;51.376;10.874;2022-09-09T17:13:28;98882.16;;;27.32;31.30